createdAt,value
2022-10-10T00:01:16.151Z,1.40
2022-10-10T00:03:44.525Z,1.75
2022-10-10T00:06:13.026Z,1.45
2022-10-10T00:08:40.644Z,1.38
2022-10-10T00:11:08.328Z,1.27
2022-10-10T00:13:36.173Z,1.27
2022-10-10T00:16:04.460Z,1.90
2022-10-10T00:18:32.999Z,1.50
2022-10-10T00:21:00.521Z,1.20
2022-10-10T00:23:28.366Z,1.67
2022-10-10T00:25:55.923Z,1.00
2022-10-10T00:28:23.734Z,1.45
2022-10-10T00:30:51.304Z,1.13
2022-10-10T00:33:19.224Z,1.38
2022-10-10T00:35:46.676Z,1.70
2022-10-10T00:38:14.175Z,0.88
2022-10-10T00:40:47.164Z,0.95
2022-10-10T00:43:15.392Z,1.30
2022-10-10T00:45:45.820Z,1.63
2022-10-10T00:48:29.579Z,1.63
2022-10-10T00:51:13.506Z,1.00
2022-10-10T00:54:09.369Z,1.50
2022-10-10T00:56:45.490Z,1.50
2022-10-10T01:01:41.729Z,1.30
2022-10-10T01:04:41.652Z,1.27
2022-10-10T01:07:22.179Z,1.25
2022-10-10T01:09:52.463Z,1.20
2022-10-10T01:12:28.432Z,0.90
2022-10-10T01:17:47.817Z,1.25
2022-10-10T01:20:40.457Z,1.25
2022-10-10T01:23:19.776Z,1.10
2022-10-10T01:26:00.941Z,1.00
2022-10-10T01:28:37.130Z,1.85
2022-10-10T01:31:08.691Z,1.00
2022-10-10T01:34:09.089Z,1.40
2022-10-10T01:36:47.702Z,1.35
2022-10-10T01:39:31.555Z,1.15
2022-10-10T01:42:10.447Z,1.65
2022-10-10T01:44:37.929Z,1.00
2022-10-10T01:47:05.416Z,1.33
2022-10-10T01:49:35.055Z,1.40
2022-10-10T01:52:26.819Z,1.30
2022-10-10T01:55:09.561Z,1.55
2022-10-10T01:57:52.413Z,1.30
2022-10-10T02:00:20.167Z,1.00
2022-10-10T02:02:54.812Z,1.10
2022-10-10T02:05:41.354Z,0.98
2022-10-10T02:08:11.105Z,1.55
2022-10-10T02:10:48.049Z,1.00
2022-10-10T02:13:18.414Z,1.13
2022-10-10T02:15:53.399Z,1.10
2022-10-10T02:18:23.229Z,1.25
2022-10-10T02:20:52.975Z,1.52
2022-10-10T02:23:22.426Z,1.63
2022-10-10T02:25:56.235Z,1.20
2022-10-10T02:28:43.580Z,1.23
2022-10-10T02:31:17.470Z,1.77
2022-10-10T02:33:56.628Z,1.42
2022-10-10T02:36:25.886Z,1.52
2022-10-10T02:38:55.196Z,1.50
2022-10-10T02:41:23.488Z,1.13
2022-10-10T02:43:52.463Z,1.30
2022-10-10T02:46:20.158Z,1.25
2022-10-10T02:48:47.684Z,1.52
2022-10-10T02:51:17.098Z,1.38
2022-10-10T02:53:44.848Z,0.90
2022-10-10T02:56:12.408Z,1.60
2022-10-10T02:58:40.020Z,1.38
2022-10-10T03:01:07.566Z,1.00
2022-10-10T03:03:35.020Z,1.10
2022-10-10T03:06:03.157Z,1.17
2022-10-10T03:08:30.552Z,1.10
2022-10-10T03:11:00.435Z,1.65
2022-10-10T03:13:28.402Z,0.98
2022-10-10T03:15:56.058Z,1.40
2022-10-10T03:18:23.881Z,1.25
2022-10-10T03:20:53.535Z,1.88
2022-10-10T03:23:21.914Z,1.77
2022-10-10T03:25:49.572Z,2.50
2022-10-10T03:28:17.292Z,1.70
2022-10-10T03:30:44.900Z,1.75
2022-10-10T03:33:12.392Z,1.52
2022-10-10T03:35:39.918Z,1.17
2022-10-10T03:38:07.583Z,1.25
2022-10-10T03:40:38.550Z,1.67
2022-10-10T03:43:06.108Z,1.13
2022-10-10T03:45:33.570Z,1.35
2022-10-10T03:48:01.041Z,1.63
2022-10-10T03:50:28.931Z,1.50
2022-10-10T03:52:56.514Z,0.88
2022-10-10T03:55:23.933Z,1.05
2022-10-10T03:57:51.433Z,1.20
2022-10-10T04:00:20.733Z,1.25
2022-10-10T04:02:48.613Z,1.42
2022-10-10T04:05:16.462Z,1.30
2022-10-10T04:07:43.970Z,1.45
2022-10-10T04:10:11.481Z,0.93
2022-10-10T04:12:38.974Z,0.93
2022-10-10T04:15:07.057Z,1.05
2022-10-10T04:17:34.466Z,0.93
2022-10-10T04:20:01.950Z,1.10
2022-10-10T04:22:29.636Z,0.90
2022-10-10T04:24:57.151Z,1.30
2022-10-10T04:27:24.729Z,1.10
2022-10-10T04:29:52.304Z,1.17
2022-10-10T04:32:19.732Z,1.05
2022-10-10T04:34:47.287Z,1.02
2022-10-10T04:37:14.890Z,1.35
2022-10-10T04:39:42.405Z,1.35
2022-10-10T04:42:09.963Z,1.25
2022-10-10T04:44:37.731Z,1.30
2022-10-10T04:47:05.187Z,1.08
2022-10-10T04:49:32.776Z,1.00
2022-10-10T04:52:00.193Z,1.20
2022-10-10T04:54:27.795Z,1.02
2022-10-10T04:56:55.345Z,1.33
2022-10-10T04:59:23.101Z,1.00
2022-10-10T05:01:50.592Z,1.23
2022-10-10T05:04:18.196Z,1.10
2022-10-10T05:06:45.697Z,1.23
2022-10-10T05:09:13.227Z,1.20
2022-10-10T05:11:40.683Z,1.30
2022-10-10T05:14:08.641Z,1.08
2022-10-10T05:16:36.098Z,1.40
2022-10-10T05:19:03.797Z,1.13
2022-10-10T05:21:31.729Z,1.30
2022-10-10T05:23:59.220Z,1.00
2022-10-10T05:26:27.037Z,1.23
2022-10-10T05:28:54.730Z,1.23
2022-10-10T05:31:22.167Z,1.10
2022-10-10T05:33:49.633Z,1.75
2022-10-10T05:36:17.204Z,0.95
2022-10-10T05:38:44.754Z,1.38
2022-10-10T05:41:12.738Z,1.20
2022-10-10T05:43:40.279Z,1.02
2022-10-10T05:46:07.785Z,0.93
2022-10-10T05:48:35.337Z,0.82
2022-10-10T05:51:02.791Z,1.60
2022-10-10T05:53:30.844Z,0.90
2022-10-10T05:56:00.698Z,1.30
2022-10-10T05:58:28.295Z,1.98
2022-10-10T06:00:55.737Z,1.73
2022-10-10T06:03:23.239Z,1.42
2022-10-10T06:05:51.958Z,1.27
2022-10-10T06:08:19.459Z,1.33
2022-10-10T06:10:47.150Z,1.15
2022-10-10T06:13:20.368Z,1.77
2022-10-10T06:15:52.123Z,1.42
2022-10-10T06:18:19.542Z,1.40
2022-10-10T06:20:47.032Z,1.55
2022-10-10T06:23:14.538Z,1.50
2022-10-10T06:25:42.460Z,1.60
2022-10-10T06:28:10.844Z,1.27
2022-10-10T06:30:48.453Z,1.23
2022-10-10T06:33:19.145Z,1.40
2022-10-10T06:35:49.448Z,2.08
2022-10-10T06:38:17.379Z,1.38
2022-10-10T06:40:45.681Z,1.20
2022-10-10T06:43:14.635Z,1.92
2022-10-10T06:45:44.621Z,1.48
2022-10-10T06:48:13.685Z,1.83
2022-10-10T06:50:41.179Z,1.30
2022-10-10T06:53:09.110Z,1.60
2022-10-10T06:55:36.700Z,1.77
2022-10-10T06:58:04.333Z,1.50
2022-10-10T07:00:32.104Z,1.27
2022-10-10T07:02:59.594Z,1.52
2022-10-10T07:05:27.270Z,1.17
2022-10-10T07:07:54.907Z,1.33
2022-10-10T07:10:22.850Z,2.22
2022-10-10T07:12:50.309Z,2.20
2022-10-10T07:15:17.870Z,2.00
2022-10-10T07:17:47.355Z,1.52
2022-10-10T07:20:18.176Z,1.70
2022-10-10T07:22:45.676Z,1.58
2022-10-10T07:25:14.745Z,1.67
2022-10-10T07:27:42.274Z,1.75
2022-10-10T07:30:10.422Z,1.67
2022-10-10T07:32:37.948Z,1.00
2022-10-10T07:35:06.970Z,1.23
2022-10-10T07:37:34.532Z,1.33
2022-10-10T07:40:02.167Z,1.60
2022-10-10T07:42:29.625Z,1.10
2022-10-10T07:44:57.163Z,1.67
2022-10-10T07:47:24.637Z,1.60
2022-10-10T07:49:52.031Z,1.27
2022-10-10T07:52:19.580Z,1.33
2022-10-10T07:54:47.007Z,1.60
2022-10-10T07:57:14.746Z,1.30
2022-10-10T07:59:45.723Z,1.90
2022-10-10T08:02:13.355Z,1.70
2022-10-10T08:04:41.038Z,1.95
2022-10-10T08:07:08.924Z,1.30
2022-10-10T08:09:36.462Z,1.60
2022-10-10T08:12:04.839Z,1.48
2022-10-10T08:14:32.324Z,1.80
2022-10-10T08:16:59.753Z,2.17
2022-10-10T08:19:27.246Z,2.00
2022-10-10T08:21:54.798Z,1.33
2022-10-10T08:24:22.272Z,1.30
2022-10-10T08:26:50.984Z,1.60
2022-10-10T08:29:18.718Z,1.40
2022-10-10T08:31:48.191Z,1.70
2022-10-10T08:34:15.780Z,1.20
2022-10-10T08:36:43.659Z,1.30
2022-10-10T08:39:11.427Z,1.58
2022-10-10T08:41:53.990Z,2.20
2022-10-10T08:44:45.817Z,1.50
2022-10-10T08:47:18.347Z,1.45
2022-10-10T08:49:48.511Z,1.45
2022-10-10T08:52:38.393Z,1.35
2022-10-10T08:55:33.785Z,1.70
2022-10-10T08:58:19.010Z,1.73
2022-10-10T09:01:07.984Z,1.83
2022-10-10T09:03:51.132Z,1.63
2022-10-10T09:06:46.062Z,1.98
2022-10-10T09:09:38.055Z,1.42
2022-10-10T09:12:26.869Z,2.08
2022-10-10T09:15:03.889Z,1.70
2022-10-10T09:17:51.825Z,2.00
2022-10-10T09:20:34.080Z,2.08
2022-10-10T09:23:06.085Z,1.80
2022-10-10T09:25:45.244Z,2.00
2022-10-10T09:28:30.668Z,1.42
2022-10-10T09:31:01.551Z,1.88
2022-10-10T09:33:49.393Z,2.20
2022-10-10T09:36:21.292Z,2.17
2022-10-10T09:38:54.505Z,2.00
2022-10-10T09:41:43.891Z,2.35
2022-10-10T09:44:13.500Z,3.03
2022-10-10T09:46:41.072Z,3.70
2022-10-10T09:49:16.970Z,3.20
2022-10-10T09:54:15.622Z,3.00
2022-10-10T09:56:53.513Z,2.72
2022-10-10T09:59:42.521Z,3.35
2022-10-10T10:02:19.845Z,3.95
2022-10-10T10:04:49.276Z,3.30
2022-10-10T10:07:32.201Z,3.60
2022-10-10T10:10:18.197Z,3.33
2022-10-10T10:12:46.531Z,2.90
2022-10-10T10:15:24.185Z,2.70
2022-10-10T10:18:11.981Z,3.10
2022-10-10T10:20:51.048Z,2.67
2022-10-10T10:23:33.845Z,2.72
2022-10-10T10:26:14.726Z,3.38
2022-10-10T10:28:43.382Z,3.47
2022-10-10T10:31:42.551Z,2.90
2022-10-10T10:34:41.473Z,3.10
2022-10-10T10:37:21.768Z,2.70
2022-10-10T10:40:07.228Z,3.22
2022-10-10T10:42:40.537Z,3.40
2022-10-10T10:45:22.408Z,3.25
2022-10-10T10:48:17.871Z,3.35
2022-10-10T10:50:54.292Z,3.53
2022-10-10T10:53:43.846Z,3.00
2022-10-10T10:56:26.009Z,3.75
2022-10-10T10:59:41.692Z,3.25
2022-10-10T11:02:08.264Z,3.47
2022-10-10T11:05:22.472Z,3.33
2022-10-10T11:07:53.472Z,2.25
2022-10-10T11:10:30.549Z,3.30
2022-10-10T11:13:03.210Z,3.13
2022-10-10T11:16:04.952Z,3.15
2022-10-10T11:18:37.071Z,3.00
2022-10-10T11:21:22.413Z,2.80
2022-10-10T11:24:04.097Z,2.95
2022-10-10T11:26:38.732Z,3.38
2022-10-10T11:29:21.233Z,2.92
2022-10-10T11:35:07.438Z,2.83
2022-10-10T11:37:38.932Z,3.53
2022-10-10T11:40:07.230Z,3.35
2022-10-10T11:42:49.029Z,3.83
2022-10-10T11:45:23.273Z,3.13
2022-10-10T11:47:59.097Z,2.75
2022-10-10T11:50:40.131Z,3.33
2022-10-10T11:53:32.407Z,3.38
2022-10-10T11:56:27.616Z,3.13
2022-10-10T11:59:04.888Z,2.88
2022-10-10T12:01:41.628Z,2.38
2022-10-10T12:04:09.222Z,2.08
2022-10-10T12:07:02.240Z,2.08
2022-10-10T12:09:39.048Z,2.28
2022-10-10T12:12:12.858Z,2.10
2022-10-10T12:14:45.513Z,2.90
2022-10-10T12:17:24.791Z,3.47
2022-10-10T12:19:52.548Z,3.20
2022-10-10T12:22:29.825Z,3.00
2022-10-10T12:25:35.188Z,2.80
2022-10-10T12:28:04.892Z,3.47
2022-10-10T12:30:32.578Z,3.35
2022-10-10T12:33:00.172Z,2.90
2022-10-10T12:35:38.672Z,3.35
2022-10-10T12:38:06.688Z,3.13
2022-10-10T12:40:34.990Z,2.97
2022-10-10T12:43:23.328Z,3.10
2022-10-10T12:45:53.638Z,3.17
2022-10-10T12:48:23.423Z,2.95
2022-10-10T12:50:59.999Z,3.33
2022-10-10T12:53:31.302Z,3.33
2022-10-10T12:56:01.260Z,2.60
2022-10-10T12:58:39.466Z,2.95
2022-10-10T13:01:23.799Z,2.70
2022-10-10T13:03:53.419Z,2.50
2022-10-10T13:06:44.150Z,2.60
2022-10-10T13:09:23.939Z,2.20
2022-10-10T13:12:00.231Z,1.80
2022-10-10T13:14:39.179Z,2.20
2022-10-10T13:17:22.694Z,2.03
2022-10-10T13:19:51.287Z,2.95
2022-10-10T13:22:19.769Z,2.33
2022-10-10T13:24:49.087Z,1.90
2022-10-10T13:27:31.260Z,1.60
2022-10-10T13:29:59.420Z,1.77
2022-10-10T13:32:33.489Z,2.40
2022-10-10T13:35:16.838Z,2.67
2022-10-10T13:37:47.541Z,2.67
2022-10-10T13:40:17.205Z,2.90
2022-10-10T13:42:48.532Z,3.00
2022-10-10T13:45:43.960Z,2.70
2022-10-10T13:48:18.090Z,2.50
2022-10-10T13:50:48.754Z,3.13
2022-10-10T13:53:33.173Z,2.67
2022-10-10T13:56:20.803Z,2.83
2022-10-10T13:59:01.348Z,3.30
2022-10-10T14:01:36.696Z,3.13
2022-10-10T14:04:13.062Z,3.22
2022-10-10T14:06:42.927Z,2.53
2022-10-10T14:09:26.421Z,2.80
2022-10-10T14:11:55.574Z,2.75
2022-10-10T14:14:31.895Z,2.85
2022-10-10T14:17:00.065Z,2.72
2022-10-10T14:19:28.253Z,2.65
2022-10-10T14:21:56.160Z,2.13
2022-10-10T14:24:23.894Z,2.90
2022-10-10T14:26:51.692Z,2.22
2022-10-10T14:29:20.297Z,2.67
2022-10-10T14:31:48.509Z,2.05
2022-10-10T14:34:16.373Z,2.30
2022-10-10T14:36:50.979Z,2.53
2022-10-10T14:39:19.883Z,2.33
2022-10-10T14:41:47.550Z,2.00
2022-10-10T14:44:15.130Z,1.92
2022-10-10T14:46:43.078Z,2.00
2022-10-10T14:49:19.878Z,1.92
2022-10-10T14:51:48.359Z,2.42
2022-10-10T14:54:15.987Z,2.15
2022-10-10T14:57:08.701Z,1.77
2022-10-10T14:59:46.124Z,1.75
2022-10-10T15:02:19.669Z,1.90
2022-10-10T15:04:47.626Z,1.83
2022-10-10T15:07:15.984Z,1.90
2022-10-10T15:10:09.693Z,1.73
2022-10-10T15:12:35.055Z,2.20
2022-10-10T15:15:02.685Z,1.80
2022-10-10T15:17:33.724Z,2.03
2022-10-10T15:20:06.147Z,1.50
2022-10-10T15:22:33.838Z,1.13
2022-10-10T15:25:01.540Z,1.40
2022-10-10T15:27:29.139Z,1.13
2022-10-10T15:29:56.685Z,1.80
2022-10-10T15:32:24.681Z,1.50
2022-10-10T15:34:53.019Z,1.20
2022-10-10T15:37:20.708Z,2.05
2022-10-10T15:39:48.348Z,1.67
2022-10-10T15:42:21.444Z,1.67
2022-10-10T15:44:50.965Z,1.63
2022-10-10T15:47:19.235Z,1.60
2022-10-10T15:49:46.971Z,1.40
2022-10-10T15:52:15.089Z,1.40
2022-10-10T15:54:42.548Z,1.88
2022-10-10T15:57:09.956Z,1.33
2022-10-10T15:59:43.411Z,1.50
2022-10-10T16:02:12.590Z,1.35
2022-10-10T16:04:40.152Z,1.20
2022-10-10T16:09:55.267Z,1.67
2022-10-10T16:12:22.692Z,1.20
2022-10-10T16:14:50.227Z,1.50
2022-10-10T16:17:22.955Z,1.30
2022-10-10T16:19:51.330Z,1.80
2022-10-10T16:22:18.873Z,1.35
2022-10-10T16:24:58.218Z,1.50
2022-10-10T16:27:36.353Z,1.30
2022-10-10T16:30:04.909Z,1.20
2022-10-10T16:32:35.768Z,1.70
2022-10-10T16:35:05.758Z,1.63
2022-10-10T16:37:33.171Z,1.73
2022-10-10T16:40:00.674Z,1.73
2022-10-10T16:42:28.301Z,1.42
2022-10-10T16:44:56.161Z,1.42
2022-10-10T16:47:23.623Z,1.45
2022-10-10T16:49:51.105Z,0.90
2022-10-10T16:52:18.843Z,1.30
2022-10-10T16:54:51.159Z,0.95
2022-10-10T16:57:19.994Z,1.00
2022-10-10T16:59:47.440Z,1.00
2022-10-10T17:02:15.012Z,1.15
2022-10-10T17:04:42.464Z,1.23
2022-10-10T17:07:09.886Z,1.02
2022-10-10T17:09:37.419Z,1.20
2022-10-10T17:12:07.325Z,1.13
2022-10-10T17:14:34.803Z,1.40
2022-10-10T17:17:17.497Z,1.08
2022-10-10T17:19:45.477Z,1.38
2022-10-10T17:22:12.892Z,1.30
2022-10-10T17:24:40.356Z,1.17
2022-10-10T17:27:07.963Z,1.00
2022-10-10T17:29:35.418Z,1.30
2022-10-10T17:32:06.554Z,1.05
2022-10-10T17:34:35.310Z,1.33
2022-10-10T17:37:03.685Z,1.00
2022-10-10T17:39:31.951Z,1.13
2022-10-10T17:42:00.068Z,1.38
2022-10-10T17:44:27.750Z,1.40
2022-10-10T17:46:55.228Z,1.10
2022-10-10T17:49:22.837Z,1.45
2022-10-10T17:51:50.611Z,1.23
2022-10-10T17:54:18.440Z,1.40
2022-10-10T17:56:46.024Z,1.48
2022-10-10T17:59:13.597Z,1.42
2022-10-10T18:01:41.123Z,1.30
2022-10-10T18:04:08.920Z,1.35
2022-10-10T18:06:37.676Z,1.38
2022-10-10T18:09:05.969Z,1.55
2022-10-10T18:11:33.573Z,1.23
2022-10-10T18:14:01.370Z,1.25
2022-10-10T18:16:33.803Z,1.15
2022-10-10T18:19:03.598Z,1.40
2022-10-10T18:21:31.239Z,1.17
2022-10-10T18:23:58.733Z,1.33
2022-10-10T18:26:32.004Z,1.40
2022-10-10T18:28:59.571Z,1.02
2022-10-10T18:31:33.349Z,1.23
2022-10-10T18:34:03.132Z,1.00
2022-10-10T18:36:34.379Z,1.60
2022-10-10T18:39:04.921Z,1.58
2022-10-10T18:41:35.451Z,1.52
2022-10-10T18:44:07.968Z,2.03
2022-10-10T18:46:35.645Z,1.80
2022-10-10T18:49:05.033Z,1.50
2022-10-10T18:51:33.147Z,1.77
2022-10-10T18:54:04.447Z,1.70
2022-10-10T18:56:33.421Z,1.27
2022-10-10T18:59:02.741Z,1.40
2022-10-10T19:01:36.542Z,1.52
2022-10-10T19:04:06.010Z,1.48
2022-10-10T19:06:33.892Z,1.25
2022-10-10T19:09:02.326Z,1.40
2022-10-10T19:11:32.813Z,1.25
2022-10-10T19:14:02.546Z,1.50
2022-10-10T19:16:31.022Z,1.30
2022-10-10T19:18:59.734Z,1.80
2022-10-10T19:21:28.827Z,1.73
2022-10-10T19:23:56.519Z,1.77
2022-10-10T19:26:24.019Z,1.25
2022-10-10T19:28:51.994Z,1.42
2022-10-10T19:31:20.275Z,1.17
2022-10-10T19:33:52.395Z,1.13
2022-10-10T19:36:19.959Z,1.40
2022-10-10T19:38:47.595Z,1.63
2022-10-10T19:41:15.610Z,1.88
2022-10-10T19:43:46.414Z,1.83
2022-10-10T19:46:16.955Z,1.52
2022-10-10T19:48:44.591Z,1.60
2022-10-10T19:51:14.739Z,2.03
2022-10-10T19:53:43.439Z,1.73
2022-10-10T19:56:20.481Z,2.00
2022-10-10T19:58:48.180Z,1.98
2022-10-10T20:01:17.624Z,1.60
2022-10-10T20:03:46.664Z,2.05
2022-10-10T20:06:15.041Z,2.33
2022-10-10T20:08:42.766Z,1.77
2022-10-10T20:11:10.541Z,2.42
2022-10-10T20:13:39.149Z,2.05
2022-10-10T20:16:10.534Z,1.90
2022-10-10T20:18:41.482Z,1.70
2022-10-10T20:21:18.112Z,1.83
2022-10-10T20:23:47.105Z,1.85
2022-10-10T20:26:17.444Z,2.42
2022-10-10T20:28:46.137Z,2.13
2022-10-10T20:31:20.215Z,1.60
2022-10-10T20:33:52.503Z,2.05
2022-10-10T20:36:21.553Z,1.20
2022-10-10T20:38:53.778Z,1.15
2022-10-10T20:41:26.085Z,2.10
2022-10-10T20:43:58.346Z,1.67
2022-10-10T20:46:28.978Z,1.52
2022-10-10T20:48:58.157Z,1.65
2022-10-10T20:51:26.933Z,1.80
2022-10-10T20:53:58.266Z,2.22
2022-10-10T20:56:26.810Z,1.45
2022-10-10T20:58:54.981Z,1.90
2022-10-10T21:01:25.648Z,1.67
2022-10-10T21:03:53.415Z,1.90
2022-10-10T21:06:23.740Z,1.92
2022-10-10T21:08:53.484Z,2.00
2022-10-10T21:11:22.293Z,1.48
2022-10-10T21:13:55.927Z,2.10
2022-10-10T21:16:32.107Z,1.67
2022-10-10T21:19:00.161Z,1.48
2022-10-10T21:21:30.943Z,1.90
2022-10-10T21:23:58.681Z,1.55
2022-10-10T21:26:28.146Z,1.60
2022-10-10T21:28:57.098Z,1.73
2022-10-10T21:31:27.544Z,2.00
2022-10-10T21:33:55.772Z,1.73
2022-10-10T21:36:25.468Z,1.50
2022-10-10T21:38:54.016Z,1.67
2022-10-10T21:41:23.157Z,1.73
2022-10-10T21:43:54.728Z,1.80
2022-10-10T21:46:25.141Z,1.65
2022-10-10T21:48:52.910Z,2.08
2022-10-10T21:51:21.575Z,2.70
2022-10-10T21:53:49.630Z,1.98
2022-10-10T21:56:17.963Z,1.80
2022-10-10T21:58:45.704Z,2.00
2022-10-10T22:01:16.568Z,2.40
2022-10-10T22:03:45.381Z,1.83
2022-10-10T22:06:15.117Z,1.60
2022-10-10T22:08:44.265Z,1.80
2022-10-10T22:11:14.455Z,2.58
2022-10-10T22:13:42.202Z,2.40
2022-10-10T22:16:10.499Z,2.15
2022-10-10T22:18:39.394Z,2.20
2022-10-10T22:21:10.319Z,2.03
2022-10-10T22:23:37.875Z,1.95
2022-10-10T22:26:08.796Z,1.63
2022-10-10T22:28:36.778Z,2.00
2022-10-10T22:31:13.465Z,2.30
2022-10-10T22:33:41.198Z,2.38
2022-10-10T22:36:09.508Z,2.30
2022-10-10T22:38:42.477Z,2.78
2022-10-10T22:41:11.417Z,1.70
2022-10-10T22:43:38.877Z,2.08
2022-10-10T22:46:06.995Z,2.10
2022-10-10T22:48:35.225Z,2.30
2022-10-10T22:51:05.614Z,1.92
2022-10-10T22:53:33.162Z,2.78
2022-10-10T22:56:00.924Z,1.75
2022-10-10T22:58:28.652Z,2.47
2022-10-10T23:00:56.192Z,1.60
2022-10-10T23:03:23.891Z,1.75
2022-10-10T23:05:51.343Z,2.47
2022-10-10T23:08:18.765Z,1.90
2022-10-10T23:10:47.259Z,1.90
2022-10-10T23:13:14.727Z,1.35
2022-10-10T23:15:42.130Z,1.80
2022-10-10T23:18:09.623Z,1.67
2022-10-10T23:20:37.114Z,2.42
2022-10-10T23:23:04.710Z,1.85
2022-10-10T23:25:32.170Z,1.65
2022-10-10T23:27:59.603Z,1.40
2022-10-10T23:30:27.404Z,1.70
2022-10-10T23:32:54.865Z,2.00
2022-10-10T23:35:22.293Z,1.95
2022-10-10T23:37:49.823Z,1.70
2022-10-10T23:40:17.445Z,2.20
2022-10-10T23:42:45.060Z,1.77
2022-10-10T23:45:12.474Z,1.77
2022-10-10T23:47:39.993Z,1.60
2022-10-10T23:50:07.972Z,1.63
2022-10-10T23:52:35.577Z,1.70
2022-10-10T23:55:06.816Z,2.10
2022-10-10T23:57:34.380Z,2.47
